CheckWX is a tool to help pilots better visualize weather data.  It is not intended as a substitute for an official pre-flight weather briefing.

04:01:37 UTC

CYET METAR
Edson Airport
Edson, Canada
Current

1 hour ago

CYET 250300Z AUTO 32010G16KT 9SM CLR 04/M17 A3014 RMK SLP243
Observed
Apr-25 @ 03:00 UTC
Wind
  • 320° at 10 KTS
  • Gusting to 16 KTS
Visibility
9 SM
Flight Rules
VFR
Cloud Levels
  • Clear skies
Temperature
C / 39°F
Dewpoint
-17°C / 1°F
Humidity
20%
Altimeter
30.14" Hg
Pressure
1020.62 hPa
Previous

2 hours ago

CYET 250200Z AUTO 30015G25KT 9SM SCT100 05/M17 A3012 RMK SLP234
Observed
Apr-25 @ 02:00 UTC
Wind
  • 300° at 15 KTS
  • Gusting to 25 KTS
Visibility
9 SM
Flight Rules
VFR
Cloud Levels
  • Scattered at 10,000' AGL
Temperature
C / 41°F
Dewpoint
-17°C / 1°F
Humidity
19%
Altimeter
30.12" Hg
Pressure
1020.02 hPa
Previous

3 hours ago

CYET 250100Z AUTO 30016G23KT 9SM BKN095 06/M16 A3011 RMK SLP228
Observed
Apr-25 @ 01:00 UTC
Wind
  • 300° at 16 KTS
  • Gusting to 23 KTS
Visibility
9 SM
Flight Rules
VFR
Cloud Levels
  • Broken at 9,500' AGL
Temperature
C / 43°F
Dewpoint
-16°C / 3°F
Humidity
19%
Altimeter
30.11" Hg
Pressure
1019.62 hPa